logo
Search for airport 
image banner adimage banner adimage banner ad
image banner ad

OEOM - Um Almelh

Located in Sharwrah, Saudi Arabia

ICAO - , IATA -

Data provided by Airmate  

General information

Coordinates: N19°6'35" E50°7'10"
Elevation is 778 feet MSL.
 
View others Airports in Najran

Operational data

Special qualification required
Current time UTC:
Current local time:
Weather at : - ( 0 km )
METAR: PAPO 170533Z AUTO 02018KT 2SM -SN BR OVC018 M13/M16 A3011 RMK AO2 VIS 1V4 P0000 FZRANO
View NOTAMs / SUP AIP / TFR affecting this airport [VIEW]
Communications frequencies: [VIEW]

Runways:

RWY identifierQFULength (ft)Width (ft)SurfaceLDA (ft)
0553°9843148UNK
23233°9843148UNK

Airport contact information

Address: Sharwrah Saudi Arabia

Satellite view of OEOM